Spring Heights, New Jersey
Current Conditions -  °F | °C
As of 8:15 AM on Wednesday 22 Oct 2014 (Local Time) from KBLM Reporting Station
Overcast Overcast  
Wind Chill: 55°   Ceiling: 600
Heat Index: 55°   Visibility: 9mi
Dew Point: 48°   Wind: 16mph
Humidity: 77%   Direction: 20°NNE
Pressure: 29.87"   Gusts: 26mph
Location:  40.1528°N, 74.0364°W
Report Text: KBLM 221215Z AUTO 02014G23KT 9SM BKN006 BKN013 OVC021 13/09 A2987 RMK AO1 LTG DSNT NE P0009
Loading
Personal Weather Stations






























Interactive Weather Map
Tropical Storm Tracking
New forecast layout! Learn more

10-Day Weather Forecast

Advertisements
Track Severe Weather on mobile